createdAt,value
2022-12-27T00:01:32.348Z,2.73
2022-12-27T00:03:58.952Z,2.77
2022-12-27T00:06:26.660Z,3.17
2022-12-27T00:08:53.743Z,2.93
2022-12-27T00:11:23.257Z,2.47
2022-12-27T00:13:50.172Z,2.90
2022-12-27T00:16:19.587Z,2.40
2022-12-27T00:18:47.327Z,2.60
2022-12-27T00:21:14.736Z,2.30
2022-12-27T00:23:44.398Z,2.70
2022-12-27T00:26:28.964Z,2.77
2022-12-27T00:28:56.147Z,3.00
2022-12-27T00:31:24.119Z,3.33
2022-12-27T00:33:52.957Z,3.00
2022-12-27T00:36:22.687Z,2.77
2022-12-27T00:38:50.573Z,2.47
2022-12-27T00:41:17.331Z,3.17
2022-12-27T00:43:43.834Z,3.00
2022-12-27T00:46:11.184Z,3.37
2022-12-27T00:48:38.025Z,3.47
2022-12-27T00:51:08.011Z,3.03
2022-12-27T00:53:35.699Z,2.87
2022-12-27T00:56:10.871Z,2.67
2022-12-27T00:58:40.863Z,2.60
2022-12-27T01:01:16.900Z,2.57
2022-12-27T01:03:44.374Z,2.53
2022-12-27T01:06:14.243Z,3.27
2022-12-27T01:08:41.929Z,2.87
2022-12-27T01:11:09.287Z,3.13
2022-12-27T01:13:36.722Z,4.10
2022-12-27T01:16:16.056Z,2.80
2022-12-27T01:18:43.101Z,3.00
2022-12-27T01:21:12.451Z,2.70
2022-12-27T01:23:39.675Z,2.90
2022-12-27T01:26:11.531Z,2.63
2022-12-27T01:28:38.219Z,2.90
2022-12-27T01:31:11.678Z,2.63
2022-12-27T01:33:38.542Z,2.87
2022-12-27T01:36:15.004Z,3.37
2022-12-27T01:38:43.326Z,3.20
2022-12-27T01:41:39.656Z,3.00
2022-12-27T01:44:44.082Z,2.93
2022-12-27T01:47:19.929Z,3.20
2022-12-27T01:50:15.952Z,2.80
2022-12-27T01:52:46.602Z,2.50
2022-12-27T01:55:20.173Z,2.50
2022-12-27T01:57:49.283Z,2.93
2022-12-27T02:00:16.721Z,3.07
2022-12-27T02:02:43.573Z,2.93
2022-12-27T02:05:15.010Z,2.97
2022-12-27T02:07:56.833Z,2.63
2022-12-27T02:10:24.399Z,2.70
2022-12-27T02:12:51.528Z,2.53
2022-12-27T02:15:18.121Z,2.60
2022-12-27T02:17:44.841Z,2.77
2022-12-27T02:20:17.760Z,3.07
2022-12-27T02:23:22.009Z,2.40
2022-12-27T02:25:51.185Z,2.93
2022-12-27T02:28:33.012Z,2.30
2022-12-27T02:31:24.917Z,2.43
2022-12-27T02:33:53.305Z,2.80
2022-12-27T02:36:29.779Z,2.70
2022-12-27T02:38:59.468Z,2.63
2022-12-27T02:41:46.458Z,2.63
2022-12-27T02:44:36.969Z,2.50
2022-12-27T02:47:23.489Z,2.63
2022-12-27T02:50:08.309Z,2.10
2022-12-27T02:53:09.955Z,2.73
2022-12-27T02:56:08.336Z,3.10
2022-12-27T02:59:10.804Z,2.47
2022-12-27T03:02:05.193Z,2.40
2022-12-27T03:04:59.830Z,2.80
2022-12-27T03:07:56.053Z,2.90
2022-12-27T03:11:19.229Z,2.53
2022-12-27T03:14:04.033Z,2.43
2022-12-27T03:16:56.010Z,2.77
2022-12-27T03:19:51.271Z,2.60
2022-12-27T03:22:38.959Z,2.53
2022-12-27T03:25:24.636Z,3.00
2022-12-27T03:28:12.505Z,3.20
2022-12-27T03:30:58.924Z,3.40
2022-12-27T03:33:27.536Z,2.60
2022-12-27T03:36:22.085Z,2.70
2022-12-27T03:39:00.803Z,2.93
2022-12-27T03:42:00.888Z,2.73
2022-12-27T03:44:27.803Z,2.90
2022-12-27T03:47:07.811Z,2.63
2022-12-27T03:49:44.666Z,3.20
2022-12-27T03:52:19.883Z,2.47
2022-12-27T03:54:50.105Z,3.17
2022-12-27T03:57:22.490Z,2.80
2022-12-27T03:59:49.694Z,3.07
2022-12-27T04:02:16.700Z,3.10
2022-12-27T04:04:43.314Z,3.00
2022-12-27T04:07:12.675Z,2.70
2022-12-27T04:09:58.052Z,2.87
2022-12-27T04:12:42.982Z,2.73
2022-12-27T04:15:28.419Z,2.60
2022-12-27T04:18:13.416Z,2.57
2022-12-27T04:20:58.824Z,2.50
2022-12-27T04:23:43.865Z,2.57
2022-12-27T04:26:29.313Z,2.63
2022-12-27T04:29:14.649Z,2.40
2022-12-27T04:31:59.557Z,2.83
2022-12-27T04:34:44.143Z,2.60
2022-12-27T04:37:15.055Z,2.57
2022-12-27T04:40:03.360Z,2.20
2022-12-27T04:42:48.621Z,2.67
2022-12-27T04:45:34.069Z,2.53
2022-12-27T04:48:19.438Z,2.60
2022-12-27T04:51:05.073Z,2.83
2022-12-27T04:53:50.840Z,2.50
2022-12-27T04:56:17.348Z,2.57
2022-12-27T04:59:03.826Z,2.30
2022-12-27T05:01:49.642Z,2.80
2022-12-27T05:04:16.603Z,2.17
2022-12-27T05:06:43.249Z,2.83
2022-12-27T05:09:28.619Z,2.30
2022-12-27T05:12:13.553Z,2.60
2022-12-27T05:14:40.039Z,2.70
2022-12-27T05:17:06.569Z,2.70
2022-12-27T05:19:35.678Z,2.63
2022-12-27T05:22:20.957Z,3.07
2022-12-27T05:25:06.012Z,2.20
2022-12-27T05:27:32.668Z,2.60
2022-12-27T05:29:59.187Z,2.63
2022-12-27T05:32:25.712Z,2.60
2022-12-27T05:34:52.381Z,2.43
2022-12-27T05:37:18.871Z,2.33
2022-12-27T05:39:45.569Z,3.00
2022-12-27T05:42:12.143Z,3.00
2022-12-27T05:44:38.785Z,2.50
2022-12-27T05:47:05.401Z,2.80
2022-12-27T05:49:31.981Z,2.63
2022-12-27T05:51:58.502Z,2.57
2022-12-27T05:54:25.078Z,2.57
2022-12-27T05:56:51.659Z,2.70
2022-12-27T05:59:18.324Z,2.57
2022-12-27T06:01:45.011Z,2.73
2022-12-27T06:04:11.789Z,2.50
2022-12-27T06:06:38.324Z,3.03
2022-12-27T06:09:05.221Z,2.63
2022-12-27T06:11:31.738Z,2.80
2022-12-27T06:13:58.340Z,2.80
2022-12-27T06:16:24.884Z,2.70
2022-12-27T06:18:51.476Z,2.70
2022-12-27T06:21:20.658Z,3.03
2022-12-27T06:23:48.638Z,2.70
2022-12-27T06:26:16.906Z,2.53
2022-12-27T06:28:43.630Z,2.83
2022-12-27T06:31:10.836Z,2.70
2022-12-27T06:33:37.609Z,2.57
2022-12-27T06:36:12.335Z,2.80
2022-12-27T06:38:39.744Z,2.50
2022-12-27T06:41:09.054Z,3.37
2022-12-27T06:43:35.816Z,2.97
2022-12-27T06:46:05.108Z,2.80
2022-12-27T06:48:32.054Z,3.00
2022-12-27T06:50:59.026Z,3.07
2022-12-27T06:53:25.537Z,2.63
2022-12-27T06:55:52.028Z,3.17
2022-12-27T06:58:18.691Z,2.50
2022-12-27T07:00:45.260Z,2.53
2022-12-27T07:03:11.902Z,3.03
2022-12-27T07:05:39.127Z,3.40
2022-12-27T07:08:06.095Z,2.50
2022-12-27T07:10:32.582Z,3.00
2022-12-27T07:12:59.341Z,2.57
2022-12-27T07:15:25.929Z,3.07
2022-12-27T07:17:52.468Z,3.47
2022-12-27T07:20:19.022Z,2.80
2022-12-27T07:22:45.616Z,2.70
2022-12-27T07:25:12.178Z,3.23
2022-12-27T07:27:38.685Z,3.20
2022-12-27T07:30:06.048Z,3.10
2022-12-27T07:32:32.969Z,2.73
2022-12-27T07:34:59.643Z,3.83
2022-12-27T07:37:26.143Z,2.77
2022-12-27T07:39:52.929Z,3.07
2022-12-27T07:42:19.452Z,3.43
2022-12-27T07:44:45.968Z,3.17
2022-12-27T07:47:12.573Z,2.33
2022-12-27T07:49:39.072Z,3.03
2022-12-27T07:52:05.570Z,2.97
2022-12-27T07:54:32.115Z,3.13
2022-12-27T07:57:01.636Z,4.83
2022-12-27T07:59:28.318Z,2.70
2022-12-27T08:02:07.246Z,2.73
2022-12-27T08:04:37.353Z,3.13
2022-12-27T08:07:08.165Z,3.17
2022-12-27T08:09:38.191Z,3.20
2022-12-27T08:12:05.125Z,2.40
2022-12-27T08:14:31.869Z,2.67
2022-12-27T08:17:04.936Z,3.20
2022-12-27T08:19:31.792Z,2.90
2022-12-27T08:21:58.333Z,3.20
2022-12-27T08:24:25.337Z,3.20
2022-12-27T08:26:51.836Z,3.40
2022-12-27T08:29:18.416Z,3.40
2022-12-27T08:31:44.968Z,2.70
2022-12-27T08:34:11.479Z,3.33
2022-12-27T08:39:24.735Z,2.90
2022-12-27T08:41:54.051Z,2.60
2022-12-27T08:44:20.618Z,2.50
2022-12-27T08:46:47.732Z,3.17
2022-12-27T08:49:14.288Z,3.40
2022-12-27T08:51:41.714Z,3.23
2022-12-27T08:54:09.961Z,2.73
2022-12-27T08:56:37.372Z,3.20
2022-12-27T08:59:04.134Z,3.10
2022-12-27T09:01:30.752Z,2.83
2022-12-27T09:03:57.326Z,2.50
2022-12-27T09:06:25.793Z,2.77
2022-12-27T09:08:54.839Z,2.70
2022-12-27T09:11:26.529Z,3.60
2022-12-27T09:13:53.347Z,2.93
2022-12-27T09:16:22.808Z,2.63
2022-12-27T09:18:52.275Z,2.60
2022-12-27T09:21:24.178Z,2.93
2022-12-27T09:23:51.594Z,2.63
2022-12-27T09:26:19.275Z,2.87
2022-12-27T09:28:49.385Z,3.07
2022-12-27T09:31:17.427Z,2.67
2022-12-27T09:33:44.960Z,2.60
2022-12-27T09:36:14.173Z,2.43
2022-12-27T09:38:42.398Z,3.13
2022-12-27T09:42:34.223Z,3.10
2022-12-27T09:44:43.710Z,2.80
2022-12-27T09:47:15.522Z,3.03
2022-12-27T09:49:48.394Z,2.60
2022-12-27T09:52:20.433Z,2.73
2022-12-27T09:55:19.472Z,2.80
2022-12-27T09:57:46.986Z,2.70
2022-12-27T10:00:30.230Z,2.73
2022-12-27T10:03:05.450Z,2.73
2022-12-27T10:05:36.541Z,2.73
2022-12-27T10:08:15.391Z,2.87
2022-12-27T10:10:51.195Z,2.90
2022-12-27T10:13:42.256Z,3.10
2022-12-27T10:16:14.923Z,3.00
2022-12-27T10:19:16.634Z,2.80
2022-12-27T10:21:56.073Z,3.13
2022-12-27T10:24:45.794Z,3.10
2022-12-27T10:27:24.922Z,3.03
2022-12-27T10:29:53.227Z,3.00
2022-12-27T10:32:19.844Z,3.20
2022-12-27T10:34:50.228Z,2.50
2022-12-27T10:37:16.779Z,3.43
2022-12-27T10:39:44.122Z,2.83
2022-12-27T10:42:38.443Z,3.00
2022-12-27T10:45:36.389Z,3.20
2022-12-27T10:48:17.036Z,2.80
2022-12-27T10:51:09.294Z,2.67
2022-12-27T10:53:54.485Z,3.00
2022-12-27T10:56:20.912Z,2.50
2022-12-27T10:58:56.465Z,2.90
2022-12-27T11:01:27.794Z,2.70
2022-12-27T11:04:24.703Z,2.80
2022-12-27T11:07:11.245Z,3.03
2022-12-27T11:09:46.287Z,3.33
2022-12-27T11:12:32.216Z,3.13
2022-12-27T11:15:10.707Z,2.60
2022-12-27T11:17:49.244Z,3.50
2022-12-27T11:20:31.275Z,3.27
2022-12-27T11:23:11.808Z,3.13
2022-12-27T11:26:02.922Z,3.33
2022-12-27T11:28:37.632Z,3.50
2022-12-27T11:31:08.690Z,2.90
2022-12-27T11:33:39.406Z,3.30
2022-12-27T11:36:08.724Z,3.43
2022-12-27T11:38:37.798Z,3.70
2022-12-27T11:41:10.012Z,3.60
2022-12-27T11:43:47.848Z,3.80
2022-12-27T11:46:28.799Z,3.00
2022-12-27T11:48:58.572Z,2.60
2022-12-27T11:51:25.047Z,2.53
2022-12-27T11:53:58.096Z,2.50
2022-12-27T11:56:30.100Z,3.03
2022-12-27T11:59:37.523Z,2.90
2022-12-27T12:02:32.894Z,2.87
2022-12-27T12:05:30.453Z,2.40
2022-12-27T12:08:22.005Z,2.50
2022-12-27T12:11:02.331Z,2.20
2022-12-27T12:14:05.896Z,2.10
2022-12-27T12:17:00.257Z,3.47
2022-12-27T12:19:48.335Z,2.87
2022-12-27T12:22:54.822Z,3.27
2022-12-27T12:25:52.222Z,2.37
2022-12-27T12:28:57.745Z,2.60
2022-12-27T12:31:54.283Z,2.33
2022-12-27T12:34:51.569Z,2.63
2022-12-27T12:37:46.794Z,3.07
2022-12-27T12:40:52.037Z,3.73
2022-12-27T12:43:40.082Z,3.03
2022-12-27T12:46:34.555Z,3.10
2022-12-27T12:49:26.178Z,3.03
2022-12-27T12:52:01.771Z,2.80
2022-12-27T12:54:44.713Z,2.60
2022-12-27T12:57:37.112Z,2.47
2022-12-27T13:00:27.781Z,2.73
2022-12-27T13:03:31.443Z,2.60
2022-12-27T13:06:14.231Z,2.67
2022-12-27T13:09:03.505Z,2.67
2022-12-27T13:12:02.301Z,3.50
2022-12-27T13:14:48.008Z,3.10
2022-12-27T13:17:17.468Z,2.93
2022-12-27T13:19:52.986Z,3.30
2022-12-27T13:22:47.992Z,3.60
2022-12-27T13:25:52.138Z,3.77
2022-12-27T13:28:42.503Z,4.53
2022-12-27T13:31:28.152Z,5.13
2022-12-27T13:34:13.073Z,3.73
2022-12-27T13:36:39.759Z,3.87
2022-12-27T13:39:23.020Z,3.50
2022-12-27T13:42:09.514Z,3.30
2022-12-27T13:45:09.539Z,3.10
2022-12-27T13:48:04.011Z,3.13
2022-12-27T13:50:48.808Z,3.13
2022-12-27T13:53:39.365Z,3.87
2022-12-27T13:56:52.688Z,3.93
2022-12-27T13:59:23.447Z,3.67
2022-12-27T14:01:56.539Z,4.10
2022-12-27T14:04:59.714Z,3.47
2022-12-27T14:07:38.561Z,3.23
2022-12-27T14:10:20.740Z,3.20
2022-12-27T14:13:03.724Z,3.77
2022-12-27T14:15:48.799Z,3.40
2022-12-27T14:18:41.275Z,3.07
2022-12-27T14:21:32.710Z,2.90
2022-12-27T14:24:30.437Z,3.07
2022-12-27T14:27:06.483Z,2.80
2022-12-27T14:30:04.229Z,2.87
2022-12-27T14:32:57.172Z,2.93
2022-12-27T14:35:59.298Z,3.23
2022-12-27T14:38:45.054Z,2.83
2022-12-27T14:41:51.522Z,3.03
2022-12-27T14:44:17.975Z,3.13
2022-12-27T14:47:18.509Z,3.00
2022-12-27T14:50:00.696Z,4.53
2022-12-27T14:52:33.706Z,4.50
2022-12-27T14:55:18.711Z,4.70
2022-12-27T14:57:59.948Z,3.80
2022-12-27T15:00:31.421Z,3.53
2022-12-27T15:03:01.256Z,3.47
2022-12-27T15:05:46.352Z,3.80
2022-12-27T15:08:16.416Z,3.47
2022-12-27T15:10:45.563Z,3.30
2022-12-27T15:13:16.927Z,3.77
2022-12-27T15:16:08.874Z,2.90
2022-12-27T15:18:41.388Z,3.10
2022-12-27T15:21:24.607Z,3.53
2022-12-27T15:23:54.472Z,3.03
2022-12-27T15:26:34.702Z,3.20
2022-12-27T15:29:25.124Z,3.10
2022-12-27T15:32:21.457Z,3.27
2022-12-27T15:35:16.843Z,2.80
2022-12-27T15:38:07.707Z,2.90
2022-12-27T15:40:34.208Z,3.00
2022-12-27T15:43:33.047Z,2.60
2022-12-27T15:46:08.781Z,3.00
2022-12-27T15:49:06.620Z,3.50
2022-12-27T15:51:43.466Z,3.80
2022-12-27T15:54:40.706Z,2.60
2022-12-27T15:57:30.447Z,3.17
2022-12-27T16:00:08.907Z,2.83
2022-12-27T16:02:52.918Z,3.03
2022-12-27T16:05:19.483Z,3.00
2022-12-27T16:07:58.226Z,2.53
2022-12-27T16:10:40.127Z,2.67
2022-12-27T16:13:09.723Z,2.10
2022-12-27T16:15:47.725Z,2.70
2022-12-27T16:18:23.410Z,2.90
2022-12-27T16:21:12.864Z,2.93
2022-12-27T16:23:47.947Z,2.87
2022-12-27T16:26:25.340Z,2.70
2022-12-27T16:29:24.166Z,3.07
2022-12-27T16:31:51.723Z,2.20
2022-12-27T16:34:25.366Z,2.57
2022-12-27T16:36:54.567Z,3.10
2022-12-27T16:39:52.208Z,2.87
2022-12-27T16:42:37.103Z,2.80
2022-12-27T16:45:29.791Z,2.67
2022-12-27T16:48:23.573Z,2.77
2022-12-27T16:51:29.606Z,2.87
2022-12-27T16:54:04.791Z,3.20
2022-12-27T16:56:39.086Z,2.23
2022-12-27T16:59:44.268Z,2.43
2022-12-27T17:02:37.143Z,2.20
2022-12-27T17:05:24.813Z,3.00
2022-12-27T17:08:12.918Z,2.40
2022-12-27T17:10:42.279Z,2.67
2022-12-27T17:13:16.148Z,2.30
2022-12-27T17:15:54.190Z,2.70
2022-12-27T17:18:28.797Z,2.50
2022-12-27T17:21:14.588Z,2.37
2022-12-27T17:23:44.263Z,2.77
2022-12-27T17:26:16.595Z,2.43
2022-12-27T17:29:29.670Z,2.83
2022-12-27T17:32:20.987Z,3.03
2022-12-27T17:34:50.443Z,2.30
2022-12-27T17:37:26.578Z,2.60
2022-12-27T17:40:06.935Z,2.97
2022-12-27T17:43:12.644Z,2.67
2022-12-27T17:46:18.111Z,2.73
2022-12-27T17:48:45.765Z,5.03
2022-12-27T17:51:18.967Z,6.43
2022-12-27T17:54:06.447Z,9.47
2022-12-27T17:57:15.547Z,9.03
2022-12-27T17:59:44.716Z,6.17
2022-12-27T18:02:11.327Z,9.67
2022-12-27T18:04:47.031Z,18.03
2022-12-27T18:07:15.349Z,5.97
2022-12-27T18:09:53.197Z,4.23
2022-12-27T18:12:28.204Z,5.07
2022-12-27T18:14:59.096Z,4.23
2022-12-27T18:17:46.965Z,7.40
2022-12-27T18:20:28.419Z,13.10
2022-12-27T18:23:00.971Z,5.10
2022-12-27T18:25:34.169Z,10.87
2022-12-27T18:28:03.265Z,5.00
2022-12-27T18:30:55.421Z,4.03
2022-12-27T18:33:32.285Z,4.63
2022-12-27T18:36:01.585Z,4.43
2022-12-27T18:38:33.370Z,3.33
2022-12-27T18:41:03.494Z,3.50
2022-12-27T18:43:31.368Z,3.30
2022-12-27T18:45:58.418Z,3.67
2022-12-27T18:48:29.652Z,3.10
2022-12-27T18:50:59.128Z,2.70
2022-12-27T18:53:32.116Z,2.80
2022-12-27T18:56:00.743Z,3.17
2022-12-27T18:58:27.928Z,3.00
2022-12-27T19:01:05.450Z,3.47
2022-12-27T19:03:38.221Z,3.00
2022-12-27T19:06:08.930Z,2.60
2022-12-27T19:08:39.296Z,2.93
2022-12-27T19:11:07.944Z,3.47
2022-12-27T19:13:43.527Z,2.80
2022-12-27T19:16:22.179Z,2.80
2022-12-27T19:18:54.493Z,2.90
2022-12-27T19:21:30.879Z,2.50
2022-12-27T19:23:57.595Z,2.87
2022-12-27T19:26:33.462Z,3.17
2022-12-27T19:29:06.410Z,2.90
2022-12-27T19:31:34.415Z,3.10
2022-12-27T19:34:06.845Z,2.47
2022-12-27T19:36:42.242Z,2.90
2022-12-27T19:39:24.216Z,2.70
2022-12-27T19:41:51.938Z,2.30
2022-12-27T19:44:19.376Z,2.60
2022-12-27T19:46:46.619Z,3.30
2022-12-27T19:49:40.864Z,2.40
2022-12-27T19:52:00.244Z,2.50
2022-12-27T19:54:27.567Z,2.93
2022-12-27T19:56:55.146Z,2.93
2022-12-27T19:59:24.273Z,2.63
2022-12-27T20:01:52.297Z,2.67
2022-12-27T20:04:19.065Z,2.67
2022-12-27T20:06:48.691Z,2.50
2022-12-27T20:09:18.230Z,3.00
2022-12-27T20:11:45.440Z,3.00
2022-12-27T20:14:14.695Z,3.27
2022-12-27T20:16:41.657Z,2.80
2022-12-27T20:19:13.422Z,2.80
2022-12-27T20:21:40.650Z,2.73
2022-12-27T20:24:10.701Z,2.60
2022-12-27T20:26:37.254Z,2.40
2022-12-27T20:29:04.179Z,2.67
2022-12-27T20:31:31.438Z,2.50
2022-12-27T20:33:58.023Z,2.80
2022-12-27T20:36:24.754Z,2.90
2022-12-27T20:38:51.280Z,2.97
2022-12-27T20:41:21.078Z,2.50
2022-12-27T20:43:47.871Z,2.53
2022-12-27T20:46:17.744Z,2.33
2022-12-27T20:48:45.948Z,3.10
2022-12-27T20:51:15.091Z,2.90
2022-12-27T20:53:42.554Z,3.10
2022-12-27T20:56:10.183Z,2.60
2022-12-27T20:58:36.845Z,2.43
2022-12-27T21:01:15.516Z,2.80
2022-12-27T21:03:42.927Z,3.00
2022-12-27T21:06:12.684Z,2.77
2022-12-27T21:08:46.594Z,2.73
2022-12-27T21:11:19.048Z,2.57
2022-12-27T21:13:46.378Z,2.27
2022-12-27T21:16:16.112Z,2.70
2022-12-27T21:18:42.834Z,2.50
2022-12-27T21:21:12.726Z,2.67
2022-12-27T21:23:40.909Z,2.37
2022-12-27T21:26:11.040Z,2.60
2022-12-27T21:28:38.119Z,2.60
2022-12-27T21:31:05.836Z,2.27
2022-12-27T21:33:33.288Z,2.60
2022-12-27T21:36:02.514Z,2.53
2022-12-27T21:38:29.187Z,2.30
2022-12-27T21:40:56.678Z,2.53
2022-12-27T21:43:23.198Z,2.57
2022-12-27T21:45:49.815Z,2.40
2022-12-27T21:48:16.373Z,2.90
2022-12-27T21:50:45.524Z,2.63
2022-12-27T21:53:12.194Z,1.80
2022-12-27T21:55:38.736Z,2.20
2022-12-27T21:58:05.234Z,2.30
2022-12-27T22:00:31.745Z,2.23
2022-12-27T22:02:58.418Z,2.00
2022-12-27T22:05:25.068Z,2.63
2022-12-27T22:07:55.048Z,2.10
2022-12-27T22:10:22.837Z,2.40
2022-12-27T22:12:49.341Z,2.50
2022-12-27T22:15:16.098Z,2.33
2022-12-27T22:17:42.598Z,2.10
2022-12-27T22:20:10.082Z,2.97
2022-12-27T22:22:36.556Z,2.03
2022-12-27T22:25:03.098Z,2.30
2022-12-27T22:27:29.618Z,2.20
2022-12-27T22:29:56.111Z,2.07
2022-12-27T22:32:22.608Z,2.60
2022-12-27T22:34:49.087Z,1.97
2022-12-27T22:37:15.645Z,2.70
2022-12-27T22:39:42.134Z,2.63
2022-12-27T22:42:08.663Z,2.57
2022-12-27T22:44:35.165Z,2.17
2022-12-27T22:49:48.177Z,2.27
2022-12-27T22:52:14.699Z,2.23
2022-12-27T22:55:05.927Z,2.53
2022-12-27T22:57:27.775Z,2.57
2022-12-27T22:59:54.296Z,1.93
2022-12-27T23:02:20.977Z,2.37
2022-12-27T23:04:47.623Z,2.30
2022-12-27T23:07:14.164Z,2.37
2022-12-27T23:09:43.432Z,2.00
2022-12-27T23:12:10.392Z,2.10
2022-12-27T23:14:36.898Z,2.07
2022-12-27T23:17:03.449Z,2.23
2022-12-27T23:19:30.001Z,2.17
2022-12-27T23:21:56.552Z,2.40
2022-12-27T23:24:23.038Z,1.93
2022-12-27T23:26:49.616Z,2.10
2022-12-27T23:29:16.136Z,2.10
2022-12-27T23:31:55.584Z,2.50
2022-12-27T23:34:28.832Z,2.50
2022-12-27T23:36:59.196Z,2.07
2022-12-27T23:39:26.783Z,2.10
2022-12-27T23:41:53.744Z,2.40
2022-12-27T23:44:33.067Z,1.90
2022-12-27T23:47:03.048Z,2.20
2022-12-27T23:49:29.916Z,1.83
2022-12-27T23:51:58.957Z,2.13
2022-12-27T23:54:25.699Z,2.47
2022-12-27T23:56:52.365Z,2.03
2022-12-27T23:59:18.950Z,2.33
